sensor_id;sensor_type;location;lat;lon;timestamp;P1;durP1;ratioP1;P2;durP2;ratioP2
57191;SDS011;43052;52.588;13.396;2023-05-18T00:01:05;13.45;;;5.45;;
57191;SDS011;43052;52.588;13.396;2023-05-18T00:03:30;8.80;;;6.05;;
57191;SDS011;43052;52.588;13.396;2023-05-18T00:05:57;10.25;;;6.35;;
57191;SDS011;43052;52.588;13.396;2023-05-18T00:08:30;10.75;;;6.60;;
57191;SDS011;43052;52.588;13.396;2023-05-18T00:10:56;11.45;;;7.00;;
57191;SDS011;43052;52.588;13.396;2023-05-18T00:13:22;14.25;;;7.20;;
57191;SDS011;43052;52.588;13.396;2023-05-18T00:15:47;13.20;;;7.25;;
57191;SDS011;43052;52.588;13.396;2023-05-18T00:18:12;10.30;;;5.70;;
57191;SDS011;43052;52.588;13.396;2023-05-18T00:20:38;10.70;;;6.07;;
57191;SDS011;43052;52.588;13.396;2023-05-18T00:23:03;13.55;;;6.75;;
57191;SDS011;43052;52.588;13.396;2023-05-18T00:25:30;10.80;;;5.43;;
57191;SDS011;43052;52.588;13.396;2023-05-18T00:27:56;11.40;;;5.35;;
57191;SDS011;43052;52.588;13.396;2023-05-18T00:30:21;9.65;;;5.43;;
57191;SDS011;43052;52.588;13.396;2023-05-18T00:32:49;12.27;;;5.40;;
57191;SDS011;43052;52.588;13.396;2023-05-18T00:35:14;8.52;;;5.22;;
57191;SDS011;43052;52.588;13.396;2023-05-18T00:37:40;9.43;;;5.07;;
57191;SDS011;43052;52.588;13.396;2023-05-18T00:40:05;11.52;;;5.07;;
57191;SDS011;43052;52.588;13.396;2023-05-18T00:42:31;10.65;;;4.88;;
57191;SDS011;43052;52.588;13.396;2023-05-18T00:44:56;7.95;;;4.45;;
57191;SDS011;43052;52.588;13.396;2023-05-18T00:47:22;9.25;;;4.90;;
57191;SDS011;43052;52.588;13.396;2023-05-18T00:49:47;8.68;;;4.70;;
57191;SDS011;43052;52.588;13.396;2023-05-18T00:52:12;11.30;;;5.75;;
57191;SDS011;43052;52.588;13.396;2023-05-18T00:54:37;8.13;;;3.88;;
57191;SDS011;43052;52.588;13.396;2023-05-18T00:57:03;8.68;;;4.20;;
57191;SDS011;43052;52.588;13.396;2023-05-18T00:59:30;6.95;;;4.05;;
57191;SDS011;43052;52.588;13.396;2023-05-18T01:02:00;8.18;;;4.18;;
57191;SDS011;43052;52.588;13.396;2023-05-18T01:04:26;7.50;;;4.20;;
57191;SDS011;43052;52.588;13.396;2023-05-18T01:06:53;8.00;;;3.90;;
57191;SDS011;43052;52.588;13.396;2023-05-18T01:09:20;7.47;;;4.30;;
57191;SDS011;43052;52.588;13.396;2023-05-18T01:12:03;9.68;;;4.40;;
57191;SDS011;43052;52.588;13.396;2023-05-18T01:20:31;10.35;;;4.30;;
57191;SDS011;43052;52.588;13.396;2023-05-18T01:23:17;11.02;;;4.05;;
57191;SDS011;43052;52.588;13.396;2023-05-18T01:28:22;12.83;;;4.00;;
57191;SDS011;43052;52.588;13.396;2023-05-18T01:30:51;7.00;;;4.28;;
57191;SDS011;43052;52.588;13.396;2023-05-18T01:33:17;12.55;;;4.40;;
57191;SDS011;43052;52.588;13.396;2023-05-18T01:35:43;8.40;;;3.78;;
57191;SDS011;43052;52.588;13.396;2023-05-18T01:38:15;8.68;;;4.00;;
57191;SDS011;43052;52.588;13.396;2023-05-18T01:40:45;6.93;;;4.10;;
57191;SDS011;43052;52.588;13.396;2023-05-18T01:43:19;7.30;;;3.63;;
57191;SDS011;43052;52.588;13.396;2023-05-18T01:45:47;7.72;;;3.75;;
57191;SDS011;43052;52.588;13.396;2023-05-18T01:48:20;8.82;;;3.75;;
57191;SDS011;43052;52.588;13.396;2023-05-18T01:50:48;8.30;;;3.42;;
57191;SDS011;43052;52.588;13.396;2023-05-18T01:53:23;8.82;;;3.97;;
57191;SDS011;43052;52.588;13.396;2023-05-18T01:55:52;8.93;;;3.95;;
57191;SDS011;43052;52.588;13.396;2023-05-18T01:58:18;9.38;;;3.97;;
57191;SDS011;43052;52.588;13.396;2023-05-18T02:00:45;7.22;;;3.70;;
57191;SDS011;43052;52.588;13.396;2023-05-18T02:03:11;9.65;;;3.72;;
57191;SDS011;43052;52.588;13.396;2023-05-18T02:05:37;7.75;;;3.90;;
57191;SDS011;43052;52.588;13.396;2023-05-18T02:08:02;10.45;;;4.30;;
57191;SDS011;43052;52.588;13.396;2023-05-18T02:10:28;9.20;;;3.60;;
57191;SDS011;43052;52.588;13.396;2023-05-18T02:12:53;8.02;;;3.58;;
57191;SDS011;43052;52.588;13.396;2023-05-18T02:15:18;8.10;;;3.65;;
57191;SDS011;43052;52.588;13.396;2023-05-18T02:17:43;8.65;;;3.67;;
57191;SDS011;43052;52.588;13.396;2023-05-18T02:20:09;7.72;;;3.90;;
57191;SDS011;43052;52.588;13.396;2023-05-18T02:22:35;8.65;;;4.20;;
57191;SDS011;43052;52.588;13.396;2023-05-18T02:25:01;9.73;;;4.05;;
57191;SDS011;43052;52.588;13.396;2023-05-18T02:27:26;11.05;;;3.58;;
57191;SDS011;43052;52.588;13.396;2023-05-18T02:29:52;9.15;;;3.97;;
57191;SDS011;43052;52.588;13.396;2023-05-18T02:32:17;8.88;;;3.70;;
57191;SDS011;43052;52.588;13.396;2023-05-18T02:34:42;7.70;;;3.80;;
57191;SDS011;43052;52.588;13.396;2023-05-18T02:37:08;8.85;;;3.50;;
57191;SDS011;43052;52.588;13.396;2023-05-18T02:39:33;8.55;;;3.90;;
57191;SDS011;43052;52.588;13.396;2023-05-18T02:41:58;6.47;;;3.70;;
57191;SDS011;43052;52.588;13.396;2023-05-18T02:44:24;12.65;;;4.10;;
57191;SDS011;43052;52.588;13.396;2023-05-18T02:46:49;8.15;;;3.70;;
57191;SDS011;43052;52.588;13.396;2023-05-18T02:49:15;8.45;;;3.58;;
57191;SDS011;43052;52.588;13.396;2023-05-18T02:51:40;8.70;;;3.40;;
57191;SDS011;43052;52.588;13.396;2023-05-18T02:54:05;6.90;;;3.58;;
57191;SDS011;43052;52.588;13.396;2023-05-18T02:56:30;8.88;;;4.00;;
57191;SDS011;43052;52.588;13.396;2023-05-18T02:58:57;7.55;;;3.85;;
57191;SDS011;43052;52.588;13.396;2023-05-18T03:01:24;6.32;;;3.63;;
57191;SDS011;43052;52.588;13.396;2023-05-18T03:03:51;7.53;;;3.45;;
57191;SDS011;43052;52.588;13.396;2023-05-18T03:06:21;9.93;;;3.85;;
57191;SDS011;43052;52.588;13.396;2023-05-18T03:08:48;9.43;;;4.10;;
57191;SDS011;43052;52.588;13.396;2023-05-18T03:11:14;8.80;;;3.97;;
57191;SDS011;43052;52.588;13.396;2023-05-18T03:13:39;7.95;;;3.88;;
57191;SDS011;43052;52.588;13.396;2023-05-18T03:16:05;9.48;;;4.07;;
57191;SDS011;43052;52.588;13.396;2023-05-18T03:18:30;7.05;;;3.38;;
57191;SDS011;43052;52.588;13.396;2023-05-18T03:20:56;8.45;;;3.75;;
57191;SDS011;43052;52.588;13.396;2023-05-18T03:23:25;8.63;;;4.00;;
57191;SDS011;43052;52.588;13.396;2023-05-18T03:25:51;10.27;;;4.35;;
57191;SDS011;43052;52.588;13.396;2023-05-18T03:28:18;9.70;;;4.22;;
57191;SDS011;43052;52.588;13.396;2023-05-18T03:30:44;12.07;;;4.15;;
57191;SDS011;43052;52.588;13.396;2023-05-18T03:33:09;8.88;;;3.78;;
57191;SDS011;43052;52.588;13.396;2023-05-18T03:35:35;9.27;;;3.70;;
57191;SDS011;43052;52.588;13.396;2023-05-18T03:38:01;9.30;;;3.90;;
57191;SDS011;43052;52.588;13.396;2023-05-18T03:40:26;11.50;;;3.80;;
57191;SDS011;43052;52.588;13.396;2023-05-18T03:42:51;13.43;;;4.30;;
57191;SDS011;43052;52.588;13.396;2023-05-18T03:45:17;7.22;;;3.60;;
57191;SDS011;43052;52.588;13.396;2023-05-18T03:47:42;9.68;;;3.63;;
57191;SDS011;43052;52.588;13.396;2023-05-18T03:50:07;10.80;;;3.72;;
57191;SDS011;43052;52.588;13.396;2023-05-18T03:52:33;7.93;;;3.97;;
57191;SDS011;43052;52.588;13.396;2023-05-18T03:55:00;10.27;;;4.38;;
57191;SDS011;43052;52.588;13.396;2023-05-18T03:57:26;7.88;;;4.30;;
57191;SDS011;43052;52.588;13.396;2023-05-18T03:59:52;11.63;;;4.53;;
57191;SDS011;43052;52.588;13.396;2023-05-18T04:02:17;7.82;;;3.97;;
57191;SDS011;43052;52.588;13.396;2023-05-18T04:04:43;7.05;;;3.80;;
57191;SDS011;43052;52.588;13.396;2023-05-18T04:07:11;6.50;;;3.72;;
57191;SDS011;43052;52.588;13.396;2023-05-18T04:09:37;8.23;;;4.07;;
57191;SDS011;43052;52.588;13.396;2023-05-18T04:12:03;7.18;;;3.75;;
57191;SDS011;43052;52.588;13.396;2023-05-18T04:14:29;7.80;;;3.85;;
57191;SDS011;43052;52.588;13.396;2023-05-18T04:16:57;8.80;;;4.20;;
57191;SDS011;43052;52.588;13.396;2023-05-18T04:19:28;8.45;;;3.50;;
57191;SDS011;43052;52.588;13.396;2023-05-18T04:21:53;7.65;;;4.03;;
57191;SDS011;43052;52.588;13.396;2023-05-18T04:24:19;10.43;;;4.45;;
57191;SDS011;43052;52.588;13.396;2023-05-18T04:26:45;7.30;;;3.53;;
57191;SDS011;43052;52.588;13.396;2023-05-18T04:29:10;6.28;;;3.00;;
57191;SDS011;43052;52.588;13.396;2023-05-18T04:31:37;7.97;;;3.08;;
57191;SDS011;43052;52.588;13.396;2023-05-18T04:34:05;5.75;;;2.70;;
57191;SDS011;43052;52.588;13.396;2023-05-18T04:36:30;5.72;;;2.72;;
57191;SDS011;43052;52.588;13.396;2023-05-18T04:38:56;6.97;;;2.80;;
57191;SDS011;43052;52.588;13.396;2023-05-18T04:41:24;3.78;;;2.25;;
57191;SDS011;43052;52.588;13.396;2023-05-18T04:43:50;7.28;;;2.70;;
57191;SDS011;43052;52.588;13.396;2023-05-18T04:46:16;5.47;;;2.13;;
57191;SDS011;43052;52.588;13.396;2023-05-18T04:48:41;10.02;;;2.65;;
57191;SDS011;43052;52.588;13.396;2023-05-18T04:51:07;5.90;;;2.28;;
57191;SDS011;43052;52.588;13.396;2023-05-18T04:53:32;4.70;;;2.50;;
57191;SDS011;43052;52.588;13.396;2023-05-18T04:55:58;6.80;;;2.50;;
57191;SDS011;43052;52.588;13.396;2023-05-18T04:58:26;5.68;;;2.75;;
57191;SDS011;43052;52.588;13.396;2023-05-18T05:00:52;6.63;;;2.63;;
57191;SDS011;43052;52.588;13.396;2023-05-18T05:03:18;7.50;;;2.40;;
57191;SDS011;43052;52.588;13.396;2023-05-18T05:05:44;6.53;;;2.55;;
57191;SDS011;43052;52.588;13.396;2023-05-18T05:08:09;6.82;;;2.30;;
57191;SDS011;43052;52.588;13.396;2023-05-18T05:10:35;6.15;;;2.38;;
57191;SDS011;43052;52.588;13.396;2023-05-18T05:13:00;8.43;;;2.33;;
57191;SDS011;43052;52.588;13.396;2023-05-18T05:15:26;6.35;;;2.40;;
57191;SDS011;43052;52.588;13.396;2023-05-18T05:17:51;6.13;;;2.42;;
57191;SDS011;43052;52.588;13.396;2023-05-18T05:20:17;9.20;;;2.58;;
57191;SDS011;43052;52.588;13.396;2023-05-18T05:22:42;7.22;;;3.05;;
57191;SDS011;43052;52.588;13.396;2023-05-18T05:25:07;7.90;;;2.50;;
57191;SDS011;43052;52.588;13.396;2023-05-18T05:27:33;6.30;;;2.65;;
57191;SDS011;43052;52.588;13.396;2023-05-18T05:29:58;6.55;;;2.55;;
57191;SDS011;43052;52.588;13.396;2023-05-18T05:32:23;7.10;;;2.70;;
57191;SDS011;43052;52.588;13.396;2023-05-18T05:34:49;8.50;;;2.55;;
57191;SDS011;43052;52.588;13.396;2023-05-18T05:37:15;6.32;;;2.17;;
57191;SDS011;43052;52.588;13.396;2023-05-18T05:39:41;5.13;;;2.22;;
57191;SDS011;43052;52.588;13.396;2023-05-18T05:42:07;6.00;;;2.50;;
57191;SDS011;43052;52.588;13.396;2023-05-18T05:44:32;6.95;;;2.17;;
57191;SDS011;43052;52.588;13.396;2023-05-18T05:46:58;6.40;;;2.10;;
57191;SDS011;43052;52.588;13.396;2023-05-18T05:49:23;7.25;;;2.30;;
57191;SDS011;43052;52.588;13.396;2023-05-18T05:51:48;8.65;;;2.28;;
57191;SDS011;43052;52.588;13.396;2023-05-18T05:54:13;6.80;;;2.30;;
57191;SDS011;43052;52.588;13.396;2023-05-18T05:56:39;5.70;;;2.00;;
57191;SDS011;43052;52.588;13.396;2023-05-18T05:59:04;7.70;;;2.45;;
57191;SDS011;43052;52.588;13.396;2023-05-18T06:01:30;9.07;;;2.15;;
57191;SDS011;43052;52.588;13.396;2023-05-18T06:03:56;5.00;;;1.83;;
57191;SDS011;43052;52.588;13.396;2023-05-18T06:06:21;5.55;;;2.45;;
57191;SDS011;43052;52.588;13.396;2023-05-18T06:08:46;5.45;;;1.95;;
57191;SDS011;43052;52.588;13.396;2023-05-18T06:11:11;7.40;;;2.00;;
57191;SDS011;43052;52.588;13.396;2023-05-18T06:13:37;6.32;;;1.85;;
57191;SDS011;43052;52.588;13.396;2023-05-18T06:16:02;6.68;;;1.98;;
57191;SDS011;43052;52.588;13.396;2023-05-18T06:18:27;4.75;;;2.00;;
57191;SDS011;43052;52.588;13.396;2023-05-18T06:20:53;7.57;;;2.40;;
57191;SDS011;43052;52.588;13.396;2023-05-18T06:23:18;6.72;;;2.10;;
57191;SDS011;43052;52.588;13.396;2023-05-18T06:25:46;6.18;;;2.10;;
57191;SDS011;43052;52.588;13.396;2023-05-18T06:28:12;7.35;;;2.42;;
57191;SDS011;43052;52.588;13.396;2023-05-18T06:30:37;5.63;;;2.00;;
57191;SDS011;43052;52.588;13.396;2023-05-18T06:33:03;6.43;;;2.20;;
57191;SDS011;43052;52.588;13.396;2023-05-18T06:35:28;8.00;;;2.25;;
57191;SDS011;43052;52.588;13.396;2023-05-18T06:37:53;5.80;;;1.90;;
57191;SDS011;43052;52.588;13.396;2023-05-18T06:40:18;6.87;;;2.20;;
57191;SDS011;43052;52.588;13.396;2023-05-18T06:42:44;6.37;;;2.57;;
57191;SDS011;43052;52.588;13.396;2023-05-18T06:45:10;6.13;;;2.10;;
57191;SDS011;43052;52.588;13.396;2023-05-18T06:47:36;5.78;;;2.22;;
57191;SDS011;43052;52.588;13.396;2023-05-18T06:50:01;6.50;;;2.00;;
57191;SDS011;43052;52.588;13.396;2023-05-18T06:52:28;6.88;;;2.53;;
57191;SDS011;43052;52.588;13.396;2023-05-18T06:54:53;5.30;;;2.08;;
57191;SDS011;43052;52.588;13.396;2023-05-18T06:57:18;6.57;;;2.33;;
57191;SDS011;43052;52.588;13.396;2023-05-18T06:59:43;8.63;;;2.22;;
57191;SDS011;43052;52.588;13.396;2023-05-18T07:02:09;7.07;;;2.37;;
57191;SDS011;43052;52.588;13.396;2023-05-18T07:04:34;5.90;;;2.00;;
57191;SDS011;43052;52.588;13.396;2023-05-18T07:06:59;7.07;;;2.20;;
57191;SDS011;43052;52.588;13.396;2023-05-18T07:09:24;5.22;;;1.90;;
57191;SDS011;43052;52.588;13.396;2023-05-18T07:11:50;7.70;;;2.00;;
57191;SDS011;43052;52.588;13.396;2023-05-18T07:14:15;6.60;;;2.30;;
57191;SDS011;43052;52.588;13.396;2023-05-18T07:16:40;6.67;;;2.40;;
57191;SDS011;43052;52.588;13.396;2023-05-18T07:19:07;6.95;;;2.13;;
57191;SDS011;43052;52.588;13.396;2023-05-18T07:21:33;6.70;;;2.07;;
57191;SDS011;43052;52.588;13.396;2023-05-18T07:23:58;6.65;;;2.08;;
57191;SDS011;43052;52.588;13.396;2023-05-18T07:26:23;5.35;;;2.08;;
57191;SDS011;43052;52.588;13.396;2023-05-18T07:28:48;5.22;;;2.13;;
57191;SDS011;43052;52.588;13.396;2023-05-18T07:31:15;4.40;;;1.70;;
57191;SDS011;43052;52.588;13.396;2023-05-18T07:33:41;4.60;;;2.03;;
57191;SDS011;43052;52.588;13.396;2023-05-18T07:36:08;7.57;;;2.58;;
57191;SDS011;43052;52.588;13.396;2023-05-18T07:38:33;6.15;;;1.75;;
57191;SDS011;43052;52.588;13.396;2023-05-18T07:40:58;5.13;;;2.13;;
57191;SDS011;43052;52.588;13.396;2023-05-18T07:43:24;5.68;;;1.95;;
57191;SDS011;43052;52.588;13.396;2023-05-18T07:45:49;7.30;;;2.10;;
57191;SDS011;43052;52.588;13.396;2023-05-18T07:48:15;4.20;;;2.13;;
57191;SDS011;43052;52.588;13.396;2023-05-18T07:50:40;6.73;;;1.70;;
57191;SDS011;43052;52.588;13.396;2023-05-18T07:53:05;7.20;;;2.47;;
57191;SDS011;43052;52.588;13.396;2023-05-18T07:55:31;5.88;;;2.17;;
57191;SDS011;43052;52.588;13.396;2023-05-18T07:57:57;6.00;;;2.15;;
57191;SDS011;43052;52.588;13.396;2023-05-18T08:00:24;3.45;;;2.08;;
57191;SDS011;43052;52.588;13.396;2023-05-18T08:02:50;4.80;;;1.97;;
57191;SDS011;43052;52.588;13.396;2023-05-18T08:05:15;5.73;;;1.97;;
57191;SDS011;43052;52.588;13.396;2023-05-18T08:07:40;8.18;;;1.92;;
57191;SDS011;43052;52.588;13.396;2023-05-18T08:10:06;5.35;;;1.90;;
57191;SDS011;43052;52.588;13.396;2023-05-18T08:12:31;6.47;;;1.63;;
57191;SDS011;43052;52.588;13.396;2023-05-18T08:14:57;5.93;;;1.87;;
57191;SDS011;43052;52.588;13.396;2023-05-18T08:17:22;5.00;;;1.52;;
57191;SDS011;43052;52.588;13.396;2023-05-18T08:19:47;6.55;;;2.20;;
57191;SDS011;43052;52.588;13.396;2023-05-18T08:22:13;5.13;;;1.70;;
57191;SDS011;43052;52.588;13.396;2023-05-18T08:24:38;5.68;;;1.85;;
57191;SDS011;43052;52.588;13.396;2023-05-18T08:27:04;4.13;;;1.60;;
57191;SDS011;43052;52.588;13.396;2023-05-18T08:29:32;7.00;;;2.10;;
57191;SDS011;43052;52.588;13.396;2023-05-18T08:31:58;5.75;;;1.60;;
57191;SDS011;43052;52.588;13.396;2023-05-18T08:34:23;5.72;;;1.95;;
57191;SDS011;43052;52.588;13.396;2023-05-18T08:36:49;5.00;;;1.73;;
57191;SDS011;43052;52.588;13.396;2023-05-18T09:02:31;5.38;;;1.55;;
57191;SDS011;43052;52.588;13.396;2023-05-18T09:04:57;4.57;;;1.60;;
57191;SDS011;43052;52.588;13.396;2023-05-18T09:07:24;4.55;;;1.70;;
57191;SDS011;43052;52.588;13.396;2023-05-18T09:09:51;6.43;;;2.03;;
57191;SDS011;43052;52.588;13.396;2023-05-18T09:12:18;4.00;;;1.88;;
57191;SDS011;43052;52.588;13.396;2023-05-18T09:14:46;5.25;;;1.70;;
57191;SDS011;43052;52.588;13.396;2023-05-18T09:17:12;4.40;;;2.10;;
57191;SDS011;43052;52.588;13.396;2023-05-18T09:19:37;4.32;;;2.00;;
57191;SDS011;43052;52.588;13.396;2023-05-18T09:22:02;4.97;;;1.80;;
57191;SDS011;43052;52.588;13.396;2023-05-18T09:24:28;5.20;;;2.00;;
57191;SDS011;43052;52.588;13.396;2023-05-18T09:26:53;4.65;;;2.08;;
57191;SDS011;43052;52.588;13.396;2023-05-18T09:29:20;5.22;;;2.00;;
57191;SDS011;43052;52.588;13.396;2023-05-18T09:31:46;4.22;;;1.70;;
57191;SDS011;43052;52.588;13.396;2023-05-18T09:34:12;5.22;;;1.75;;
57191;SDS011;43052;52.588;13.396;2023-05-18T09:36:38;4.30;;;1.58;;
57191;SDS011;43052;52.588;13.396;2023-05-18T09:39:08;6.05;;;1.45;;
57191;SDS011;43052;52.588;13.396;2023-05-18T09:41:38;5.90;;;1.55;;
57191;SDS011;43052;52.588;13.396;2023-05-18T09:44:04;4.05;;;1.55;;
57191;SDS011;43052;52.588;13.396;2023-05-18T09:46:36;5.65;;;1.90;;
57191;SDS011;43052;52.588;13.396;2023-05-18T09:49:02;6.32;;;1.90;;
57191;SDS011;43052;52.588;13.396;2023-05-18T09:51:29;3.53;;;1.60;;
57191;SDS011;43052;52.588;13.396;2023-05-18T09:53:55;4.47;;;1.80;;
57191;SDS011;43052;52.588;13.396;2023-05-18T09:56:22;3.75;;;1.83;;
57191;SDS011;43052;52.588;13.396;2023-05-18T09:58:53;7.82;;;2.15;;
57191;SDS011;43052;52.588;13.396;2023-05-18T10:01:19;4.13;;;1.80;;
57191;SDS011;43052;52.588;13.396;2023-05-18T10:03:44;4.05;;;1.48;;
57191;SDS011;43052;52.588;13.396;2023-05-18T10:06:12;6.68;;;1.60;;
57191;SDS011;43052;52.588;13.396;2023-05-18T10:08:38;5.15;;;1.80;;
57191;SDS011;43052;52.588;13.396;2023-05-18T10:11:04;3.45;;;1.42;;
57191;SDS011;43052;52.588;13.396;2023-05-18T10:13:30;6.75;;;2.05;;
57191;SDS011;43052;52.588;13.396;2023-05-18T10:16:00;6.05;;;1.52;;
57191;SDS011;43052;52.588;13.396;2023-05-18T10:18:36;5.43;;;1.60;;
57191;SDS011;43052;52.588;13.396;2023-05-18T10:21:03;5.35;;;2.00;;
57191;SDS011;43052;52.588;13.396;2023-05-18T10:23:32;5.65;;;1.80;;
57191;SDS011;43052;52.588;13.396;2023-05-18T10:25:59;5.43;;;1.70;;
57191;SDS011;43052;52.588;13.396;2023-05-18T10:28:32;4.28;;;2.13;;
57191;SDS011;43052;52.588;13.396;2023-05-18T10:31:05;3.63;;;2.15;;
57191;SDS011;43052;52.588;13.396;2023-05-18T10:33:32;5.88;;;2.10;;
57191;SDS011;43052;52.588;13.396;2023-05-18T10:35:59;3.35;;;1.70;;
57191;SDS011;43052;52.588;13.396;2023-05-18T10:38:27;5.40;;;1.60;;
57191;SDS011;43052;52.588;13.396;2023-05-18T10:40:54;6.47;;;2.38;;
57191;SDS011;43052;52.588;13.396;2023-05-18T10:43:26;5.57;;;2.60;;
57191;SDS011;43052;52.588;13.396;2023-05-18T10:45:53;5.63;;;2.38;;
57191;SDS011;43052;52.588;13.396;2023-05-18T10:48:23;5.05;;;2.00;;
57191;SDS011;43052;52.588;13.396;2023-05-18T10:50:50;3.60;;;1.75;;
57191;SDS011;43052;52.588;13.396;2023-05-18T10:53:17;4.75;;;1.95;;
57191;SDS011;43052;52.588;13.396;2023-05-18T10:55:44;5.78;;;1.50;;
57191;SDS011;43052;52.588;13.396;2023-05-18T10:58:13;5.40;;;1.90;;
57191;SDS011;43052;52.588;13.396;2023-05-18T11:00:40;6.35;;;2.03;;
57191;SDS011;43052;52.588;13.396;2023-05-18T11:03:12;5.68;;;1.70;;
57191;SDS011;43052;52.588;13.396;2023-05-18T11:05:39;6.53;;;1.70;;
57191;SDS011;43052;52.588;13.396;2023-05-18T11:08:05;5.78;;;1.70;;
57191;SDS011;43052;52.588;13.396;2023-05-18T11:10:39;2.75;;;1.63;;
57191;SDS011;43052;52.588;13.396;2023-05-18T11:13:06;4.50;;;1.48;;
57191;SDS011;43052;52.588;13.396;2023-05-18T11:18:19;4.70;;;1.80;;
57191;SDS011;43052;52.588;13.396;2023-05-18T11:21:18;3.95;;;2.03;;
57191;SDS011;43052;52.588;13.396;2023-05-18T11:26:49;3.92;;;1.75;;
57191;SDS011;43052;52.588;13.396;2023-05-18T11:29:29;4.20;;;2.03;;
57191;SDS011;43052;52.588;13.396;2023-05-18T11:32:00;5.18;;;2.10;;
57191;SDS011;43052;52.588;13.396;2023-05-18T11:34:36;6.78;;;1.98;;
57191;SDS011;43052;52.588;13.396;2023-05-18T11:37:04;5.40;;;1.63;;
57191;SDS011;43052;52.588;13.396;2023-05-18T11:39:31;3.70;;;1.63;;
57191;SDS011;43052;52.588;13.396;2023-05-18T11:41:57;4.30;;;1.85;;
57191;SDS011;43052;52.588;13.396;2023-05-18T11:44:27;4.03;;;1.63;;
57191;SDS011;43052;52.588;13.396;2023-05-18T11:46:54;5.45;;;1.80;;
57191;SDS011;43052;52.588;13.396;2023-05-18T11:49:23;4.20;;;1.52;;
57191;SDS011;43052;52.588;13.396;2023-05-18T11:54:44;7.32;;;1.95;;
57191;SDS011;43052;52.588;13.396;2023-05-18T11:57:14;6.03;;;1.95;;
57191;SDS011;43052;52.588;13.396;2023-05-18T11:59:45;5.57;;;1.92;;
57191;SDS011;43052;52.588;13.396;2023-05-18T12:02:12;5.50;;;1.60;;
57191;SDS011;43052;52.588;13.396;2023-05-18T12:04:44;4.47;;;1.65;;
57191;SDS011;43052;52.588;13.396;2023-05-18T12:07:11;7.20;;;1.73;;
57191;SDS011;43052;52.588;13.396;2023-05-18T12:09:41;5.07;;;2.28;;
57191;SDS011;43052;52.588;13.396;2023-05-18T12:12:09;3.85;;;1.60;;
57191;SDS011;43052;52.588;13.396;2023-05-18T12:14:53;6.65;;;2.42;;
57191;SDS011;43052;52.588;13.396;2023-05-18T12:17:20;5.22;;;1.70;;
57191;SDS011;43052;52.588;13.396;2023-05-18T12:19:49;6.68;;;1.90;;
57191;SDS011;43052;52.588;13.396;2023-05-18T12:28:39;5.95;;;1.77;;
57191;SDS011;43052;52.588;13.396;2023-05-18T12:31:12;6.25;;;1.77;;
57191;SDS011;43052;52.588;13.396;2023-05-18T12:33:55;8.20;;;2.10;;
57191;SDS011;43052;52.588;13.396;2023-05-18T12:39:32;4.40;;;1.70;;
57191;SDS011;43052;52.588;13.396;2023-05-18T12:42:35;4.65;;;1.45;;
57191;SDS011;43052;52.588;13.396;2023-05-18T12:45:25;7.43;;;2.05;;
57191;SDS011;43052;52.588;13.396;2023-05-18T12:51:18;3.88;;;1.60;;
57191;SDS011;43052;52.588;13.396;2023-05-18T12:53:44;5.90;;;1.70;;
57191;SDS011;43052;52.588;13.396;2023-05-18T12:56:09;4.72;;;1.92;;
57191;SDS011;43052;52.588;13.396;2023-05-18T12:58:39;4.30;;;2.00;;
57191;SDS011;43052;52.588;13.396;2023-05-18T13:01:05;7.57;;;1.80;;
57191;SDS011;43052;52.588;13.396;2023-05-18T13:03:33;4.57;;;1.60;;
57191;SDS011;43052;52.588;13.396;2023-05-18T13:06:05;4.78;;;1.80;;
57191;SDS011;43052;52.588;13.396;2023-05-18T13:08:33;4.35;;;1.77;;
57191;SDS011;43052;52.588;13.396;2023-05-18T13:11:18;5.82;;;2.28;;
57191;SDS011;43052;52.588;13.396;2023-05-18T13:13:56;4.88;;;1.85;;
57191;SDS011;43052;52.588;13.396;2023-05-18T13:16:28;6.15;;;2.50;;
57191;SDS011;43052;52.588;13.396;2023-05-18T13:18:59;6.57;;;2.10;;
57191;SDS011;43052;52.588;13.396;2023-05-18T13:21:25;3.65;;;1.60;;
57191;SDS011;43052;52.588;13.396;2023-05-18T13:23:50;6.88;;;1.77;;
57191;SDS011;43052;52.588;13.396;2023-05-18T13:26:15;4.03;;;1.90;;
57191;SDS011;43052;52.588;13.396;2023-05-18T13:28:43;5.28;;;2.08;;
57191;SDS011;43052;52.588;13.396;2023-05-18T13:31:13;4.72;;;1.98;;
57191;SDS011;43052;52.588;13.396;2023-05-18T13:33:39;5.35;;;1.80;;
57191;SDS011;43052;52.588;13.396;2023-05-18T13:36:04;5.18;;;1.90;;
57191;SDS011;43052;52.588;13.396;2023-05-18T13:38:29;4.25;;;1.77;;
57191;SDS011;43052;52.588;13.396;2023-05-18T13:40:59;7.25;;;2.05;;
57191;SDS011;43052;52.588;13.396;2023-05-18T13:43:24;4.32;;;1.75;;
57191;SDS011;43052;52.588;13.396;2023-05-18T13:45:49;4.53;;;1.60;;
57191;SDS011;43052;52.588;13.396;2023-05-18T13:48:15;3.65;;;1.75;;
57191;SDS011;43052;52.588;13.396;2023-05-18T13:50:40;4.00;;;1.98;;
57191;SDS011;43052;52.588;13.396;2023-05-18T13:53:05;5.10;;;2.00;;
57191;SDS011;43052;52.588;13.396;2023-05-18T13:55:30;4.90;;;2.25;;
57191;SDS011;43052;52.588;13.396;2023-05-18T13:57:56;5.70;;;2.60;;
57191;SDS011;43052;52.588;13.396;2023-05-18T14:00:23;3.97;;;2.00;;
57191;SDS011;43052;52.588;13.396;2023-05-18T14:02:48;4.15;;;1.88;;
57191;SDS011;43052;52.588;13.396;2023-05-18T14:05:14;5.18;;;2.05;;
57191;SDS011;43052;52.588;13.396;2023-05-18T14:07:40;5.15;;;2.13;;
57191;SDS011;43052;52.588;13.396;2023-05-18T14:10:07;5.82;;;2.20;;
57191;SDS011;43052;52.588;13.396;2023-05-18T14:12:34;4.72;;;2.80;;
57191;SDS011;43052;52.588;13.396;2023-05-18T14:15:00;4.82;;;2.28;;
57191;SDS011;43052;52.588;13.396;2023-05-18T14:17:26;3.90;;;2.10;;
57191;SDS011;43052;52.588;13.396;2023-05-18T14:19:51;3.63;;;2.30;;
57191;SDS011;43052;52.588;13.396;2023-05-18T14:22:16;2.72;;;1.92;;
57191;SDS011;43052;52.588;13.396;2023-05-18T14:24:42;5.47;;;2.08;;
57191;SDS011;43052;52.588;13.396;2023-05-18T14:27:08;4.47;;;2.42;;
57191;SDS011;43052;52.588;13.396;2023-05-18T14:29:33;5.35;;;2.13;;
57191;SDS011;43052;52.588;13.396;2023-05-18T14:31:58;4.57;;;2.17;;
57191;SDS011;43052;52.588;13.396;2023-05-18T14:34:24;4.68;;;2.20;;
57191;SDS011;43052;52.588;13.396;2023-05-18T14:36:50;4.00;;;1.95;;
57191;SDS011;43052;52.588;13.396;2023-05-18T14:39:16;6.88;;;2.40;;
57191;SDS011;43052;52.588;13.396;2023-05-18T14:41:41;5.00;;;2.30;;
57191;SDS011;43052;52.588;13.396;2023-05-18T14:44:06;5.32;;;2.50;;
57191;SDS011;43052;52.588;13.396;2023-05-18T14:46:33;5.53;;;2.40;;
57191;SDS011;43052;52.588;13.396;2023-05-18T14:49:02;3.80;;;2.65;;
57191;SDS011;43052;52.588;13.396;2023-05-18T14:51:27;2.55;;;1.85;;
57191;SDS011;43052;52.588;13.396;2023-05-18T14:53:52;3.60;;;2.35;;
57191;SDS011;43052;52.588;13.396;2023-05-18T14:56:18;5.38;;;2.70;;
57191;SDS011;43052;52.588;13.396;2023-05-18T14:58:43;3.97;;;2.20;;
57191;SDS011;43052;52.588;13.396;2023-05-18T15:01:09;6.28;;;2.53;;
57191;SDS011;43052;52.588;13.396;2023-05-18T15:03:34;4.60;;;2.42;;
57191;SDS011;43052;52.588;13.396;2023-05-18T15:05:59;4.00;;;2.30;;
57191;SDS011;43052;52.588;13.396;2023-05-18T15:08:25;4.32;;;2.40;;
57191;SDS011;43052;52.588;13.396;2023-05-18T15:10:50;4.25;;;1.88;;
57191;SDS011;43052;52.588;13.396;2023-05-18T15:13:16;5.40;;;2.47;;
57191;SDS011;43052;52.588;13.396;2023-05-18T15:15:42;6.43;;;2.65;;
57191;SDS011;43052;52.588;13.396;2023-05-18T15:18:07;5.60;;;3.08;;
57191;SDS011;43052;52.588;13.396;2023-05-18T15:20:32;7.38;;;3.00;;
57191;SDS011;43052;52.588;13.396;2023-05-18T15:22:57;5.00;;;2.75;;
57191;SDS011;43052;52.588;13.396;2023-05-18T15:25:23;9.20;;;2.83;;